sensor_id;sensor_type;location;lat;lon;timestamp;pressure;altitude;pressure_sealevel;temperature;humidity
44351;BME280;62766;62.622;17.912;2023-02-21T00:00:22;98993.70;;;-0.57;71.49
44351;BME280;62766;62.622;17.912;2023-02-21T00:02:50;98997.37;;;-0.52;71.54
44351;BME280;62766;62.622;17.912;2023-02-21T00:05:19;99000.30;;;-0.54;71.25
44351;BME280;62766;62.622;17.912;2023-02-21T00:07:47;99003.75;;;-0.58;71.17
44351;BME280;62766;62.622;17.912;2023-02-21T00:10:16;99002.77;;;-0.57;71.25
44351;BME280;62766;62.622;17.912;2023-02-21T00:12:45;99013.86;;;-0.51;71.03
44351;BME280;62766;62.622;17.912;2023-02-21T00:15:14;99020.83;;;-0.62;71.05
44351;BME280;62766;62.622;17.912;2023-02-21T00:17:42;99029.09;;;-0.64;71.26
44351;BME280;62766;62.622;17.912;2023-02-21T00:20:10;99032.94;;;-0.61;71.59
44351;BME280;62766;62.622;17.912;2023-02-21T00:22:39;99039.04;;;-0.54;71.60
44351;BME280;62766;62.622;17.912;2023-02-21T00:25:07;99048.44;;;-0.66;71.53
44351;BME280;62766;62.622;17.912;2023-02-21T00:27:36;99051.26;;;-0.55;71.58
44351;BME280;62766;62.622;17.912;2023-02-21T00:30:06;99058.98;;;-0.57;71.55
44351;BME280;62766;62.622;17.912;2023-02-21T00:32:35;99063.11;;;-0.77;71.76
44351;BME280;62766;62.622;17.912;2023-02-21T00:35:04;99068.16;;;-0.81;72.13
44351;BME280;62766;62.622;17.912;2023-02-21T00:37:32;99074.68;;;-0.86;72.53
44351;BME280;62766;62.622;17.912;2023-02-21T00:40:00;99073.63;;;-0.77;72.47
44351;BME280;62766;62.622;17.912;2023-02-21T00:42:29;99080.34;;;-0.60;72.30
44351;BME280;62766;62.622;17.912;2023-02-21T00:44:57;99082.92;;;-0.69;72.09
44351;BME280;62766;62.622;17.912;2023-02-21T00:47:26;99087.62;;;-0.90;72.32
44351;BME280;62766;62.622;17.912;2023-02-21T00:49:54;99093.67;;;-0.88;72.52
44351;BME280;62766;62.622;17.912;2023-02-21T00:52:23;99101.69;;;-0.91;72.81
44351;BME280;62766;62.622;17.912;2023-02-21T00:54:51;99115.05;;;-0.86;73.00
44351;BME280;62766;62.622;17.912;2023-02-21T00:57:20;99116.84;;;-0.93;73.20
44351;BME280;62766;62.622;17.912;2023-02-21T00:59:49;99122.37;;;-0.93;73.29
44351;BME280;62766;62.622;17.912;2023-02-21T01:02:18;99127.01;;;-1.04;73.34
44351;BME280;62766;62.622;17.912;2023-02-21T01:04:46;99132.79;;;-0.97;73.59
44351;BME280;62766;62.622;17.912;2023-02-21T01:07:16;99138.26;;;-0.88;73.64
44351;BME280;62766;62.622;17.912;2023-02-21T01:09:43;99141.93;;;-0.97;73.39
44351;BME280;62766;62.622;17.912;2023-02-21T01:12:14;99144.86;;;-1.08;73.47
44351;BME280;62766;62.622;17.912;2023-02-21T01:14:43;99157.84;;;-1.03;73.53
44351;BME280;62766;62.622;17.912;2023-02-21T01:17:11;99172.88;;;-0.95;73.15
44351;BME280;62766;62.622;17.912;2023-02-21T01:19:40;99179.19;;;-0.99;72.83
44351;BME280;62766;62.622;17.912;2023-02-21T01:22:08;99182.45;;;-1.09;72.74
44351;BME280;62766;62.622;17.912;2023-02-21T01:24:37;99187.33;;;-1.04;72.59
44351;BME280;62766;62.622;17.912;2023-02-21T01:27:05;99199.37;;;-1.13;72.86
44351;BME280;62766;62.622;17.912;2023-02-21T01:29:34;99204.06;;;-1.06;73.22
44351;BME280;62766;62.622;17.912;2023-02-21T01:32:02;99212.68;;;-1.07;73.35
44351;BME280;62766;62.622;17.912;2023-02-21T01:34:31;99218.12;;;-1.05;73.42
44351;BME280;62766;62.622;17.912;2023-02-21T01:36:59;99231.15;;;-1.13;73.87
44351;BME280;62766;62.622;17.912;2023-02-21T01:39:28;99243.37;;;-1.20;74.34
44351;BME280;62766;62.622;17.912;2023-02-21T01:41:56;99253.41;;;-1.26;74.26
44351;BME280;62766;62.622;17.912;2023-02-21T01:44:31;99265.81;;;-1.28;74.21
44351;BME280;62766;62.622;17.912;2023-02-21T01:47:00;99273.69;;;-1.23;74.08
44351;BME280;62766;62.622;17.912;2023-02-21T01:49:29;99280.17;;;-1.29;74.00
44351;BME280;62766;62.622;17.912;2023-02-21T01:52:00;99284.41;;;-1.28;74.04
44351;BME280;62766;62.622;17.912;2023-02-21T01:54:33;99291.79;;;-1.23;74.12
44351;BME280;62766;62.622;17.912;2023-02-21T01:57:04;99302.98;;;-1.35;74.13
44351;BME280;62766;62.622;17.912;2023-02-21T01:59:33;99310.76;;;-1.39;74.01
44351;BME280;62766;62.622;17.912;2023-02-21T02:02:04;99323.39;;;-1.35;73.79
44351;BME280;62766;62.622;17.912;2023-02-21T02:04:34;99328.93;;;-1.35;74.04
44351;BME280;62766;62.622;17.912;2023-02-21T02:07:02;99339.71;;;-1.39;74.22
44351;BME280;62766;62.622;17.912;2023-02-21T02:09:31;99353.48;;;-1.45;74.21
44351;BME280;62766;62.622;17.912;2023-02-21T02:12:14;99361.85;;;-1.43;74.43
44351;BME280;62766;62.622;17.912;2023-02-21T02:14:54;99366.26;;;-1.34;74.15
44351;BME280;62766;62.622;17.912;2023-02-21T02:17:38;99379.71;;;-1.49;73.79
44351;BME280;62766;62.622;17.912;2023-02-21T02:20:29;99388.45;;;-1.45;73.53
44351;BME280;62766;62.622;17.912;2023-02-21T02:23:23;99397.29;;;-1.49;73.37
44351;BME280;62766;62.622;17.912;2023-02-21T02:26:34;99404.73;;;-1.42;73.11
44351;BME280;62766;62.622;17.912;2023-02-21T02:29:29;99418.66;;;-1.49;72.99
44351;BME280;62766;62.622;17.912;2023-02-21T02:32:16;99423.69;;;-1.55;72.93
44351;BME280;62766;62.622;17.912;2023-02-21T02:34:55;99437.67;;;-1.48;73.07
44351;BME280;62766;62.622;17.912;2023-02-21T02:37:30;99447.01;;;-1.48;73.35
44351;BME280;62766;62.622;17.912;2023-02-21T02:40:09;99457.15;;;-1.48;73.31
44351;BME280;62766;62.622;17.912;2023-02-21T02:42:47;99468.50;;;-1.50;72.42
44351;BME280;62766;62.622;17.912;2023-02-21T02:45:23;99487.47;;;-1.47;72.37
44351;BME280;62766;62.622;17.912;2023-02-21T02:48:00;99492.44;;;-1.51;72.24
44351;BME280;62766;62.622;17.912;2023-02-21T02:50:32;99497.09;;;-1.69;72.07
44351;BME280;62766;62.622;17.912;2023-02-21T02:53:02;99509.33;;;-1.65;71.68
44351;BME280;62766;62.622;17.912;2023-02-21T02:55:38;99516.70;;;-1.68;71.63
44351;BME280;62766;62.622;17.912;2023-02-21T02:58:09;99525.95;;;-1.69;71.43
44351;BME280;62766;62.622;17.912;2023-02-21T03:00:42;99536.37;;;-1.87;71.79
44351;BME280;62766;62.622;17.912;2023-02-21T03:03:57;99547.98;;;-1.96;71.88
44351;BME280;62766;62.622;17.912;2023-02-21T03:06:38;99558.55;;;-1.95;71.75
44351;BME280;62766;62.622;17.912;2023-02-21T03:09:17;99568.76;;;-1.86;72.15
44351;BME280;62766;62.622;17.912;2023-02-21T03:11:55;99574.10;;;-1.92;72.14
44351;BME280;62766;62.622;17.912;2023-02-21T03:14:31;99590.44;;;-1.97;72.29
44351;BME280;62766;62.622;17.912;2023-02-21T03:17:03;99598.94;;;-1.98;72.21
44351;BME280;62766;62.622;17.912;2023-02-21T03:19:36;99608.60;;;-1.86;71.28
44351;BME280;62766;62.622;17.912;2023-02-21T03:22:07;99616.08;;;-2.02;71.24
44351;BME280;62766;62.622;17.912;2023-02-21T03:24:40;99623.00;;;-2.00;71.83
44351;BME280;62766;62.622;17.912;2023-02-21T03:27:10;99632.14;;;-2.12;71.83
44351;BME280;62766;62.622;17.912;2023-02-21T03:29:40;99640.16;;;-2.07;71.67
44351;BME280;62766;62.622;17.912;2023-02-21T03:32:12;99655.17;;;-2.15;71.07
44351;BME280;62766;62.622;17.912;2023-02-21T03:34:43;99669.62;;;-2.26;70.13
44351;BME280;62766;62.622;17.912;2023-02-21T03:37:19;99672.11;;;-2.39;70.30
44351;BME280;62766;62.622;17.912;2023-02-21T03:39:48;99682.81;;;-2.32;69.95
44351;BME280;62766;62.622;17.912;2023-02-21T03:42:17;99693.18;;;-2.26;69.84
44351;BME280;62766;62.622;17.912;2023-02-21T03:44:46;99705.28;;;-2.17;69.06
44351;BME280;62766;62.622;17.912;2023-02-21T03:47:16;99709.18;;;-2.35;69.17
44351;BME280;62766;62.622;17.912;2023-02-21T03:49:45;99718.63;;;-2.33;69.33
44351;BME280;62766;62.622;17.912;2023-02-21T03:52:14;99720.37;;;-2.31;69.32
44351;BME280;62766;62.622;17.912;2023-02-21T03:54:42;99731.59;;;-2.23;68.98
44351;BME280;62766;62.622;17.912;2023-02-21T03:57:12;99735.14;;;-2.33;68.68
44351;BME280;62766;62.622;17.912;2023-02-21T03:59:41;99738.20;;;-2.25;68.39
44351;BME280;62766;62.622;17.912;2023-02-21T04:02:10;99746.57;;;-2.34;68.58
44351;BME280;62766;62.622;17.912;2023-02-21T04:04:38;99754.16;;;-2.39;68.84
44351;BME280;62766;62.622;17.912;2023-02-21T04:07:07;99761.63;;;-2.31;68.90
44351;BME280;62766;62.622;17.912;2023-02-21T04:09:37;99770.19;;;-2.38;68.76
44351;BME280;62766;62.622;17.912;2023-02-21T04:12:07;99774.25;;;-2.25;68.66
44351;BME280;62766;62.622;17.912;2023-02-21T04:14:36;99778.86;;;-2.26;68.83
44351;BME280;62766;62.622;17.912;2023-02-21T04:17:04;99786.90;;;-2.10;68.93
44351;BME280;62766;62.622;17.912;2023-02-21T04:19:33;99792.38;;;-2.05;68.91
44351;BME280;62766;62.622;17.912;2023-02-21T04:22:02;99804.13;;;-2.00;68.57
44351;BME280;62766;62.622;17.912;2023-02-21T04:24:31;99808.04;;;-2.16;68.48
44351;BME280;62766;62.622;17.912;2023-02-21T04:27:00;99818.28;;;-2.08;68.19
44351;BME280;62766;62.622;17.912;2023-02-21T04:29:28;99824.66;;;-2.09;68.02
44351;BME280;62766;62.622;17.912;2023-02-21T04:31:57;99832.53;;;-2.07;67.84
44351;BME280;62766;62.622;17.912;2023-02-21T04:34:25;99838.83;;;-2.04;67.53
44351;BME280;62766;62.622;17.912;2023-02-21T04:36:54;99850.35;;;-1.93;67.38
44351;BME280;62766;62.622;17.912;2023-02-21T04:39:24;99859.42;;;-1.96;66.80
44351;BME280;62766;62.622;17.912;2023-02-21T04:41:52;99869.80;;;-1.94;66.61
44351;BME280;62766;62.622;17.912;2023-02-21T04:44:21;99876.67;;;-1.81;66.56
44351;BME280;62766;62.622;17.912;2023-02-21T04:46:49;99881.50;;;-1.87;65.93
44351;BME280;62766;62.622;17.912;2023-02-21T04:49:18;99881.87;;;-1.99;65.97
44351;BME280;62766;62.622;17.912;2023-02-21T04:51:47;99892.46;;;-2.05;65.83
44351;BME280;62766;62.622;17.912;2023-02-21T04:54:16;99894.02;;;-1.98;65.86
44351;BME280;62766;62.622;17.912;2023-02-21T04:56:45;99901.18;;;-2.03;66.04
44351;BME280;62766;62.622;17.912;2023-02-21T04:59:14;99909.24;;;-2.04;65.78
44351;BME280;62766;62.622;17.912;2023-02-21T05:03:32;99919.88;;;-2.25;66.04
44351;BME280;62766;62.622;17.912;2023-02-21T05:06:00;99928.79;;;-2.23;66.00
44351;BME280;62766;62.622;17.912;2023-02-21T05:08:29;99929.91;;;-2.09;65.70
44351;BME280;62766;62.622;17.912;2023-02-21T05:10:57;99940.79;;;-2.34;65.80
44351;BME280;62766;62.622;17.912;2023-02-21T05:13:26;99943.81;;;-2.33;66.09
44351;BME280;62766;62.622;17.912;2023-02-21T05:15:55;99952.28;;;-2.35;66.11
44351;BME280;62766;62.622;17.912;2023-02-21T05:18:23;99963.29;;;-2.36;65.73
44351;BME280;62766;62.622;17.912;2023-02-21T05:20:52;99970.95;;;-2.47;65.80
44351;BME280;62766;62.622;17.912;2023-02-21T05:23:21;99978.05;;;-2.51;66.09
44351;BME280;62766;62.622;17.912;2023-02-21T05:25:50;99986.77;;;-2.51;66.16
44351;BME280;62766;62.622;17.912;2023-02-21T05:28:19;99999.21;;;-2.50;65.97
44351;BME280;62766;62.622;17.912;2023-02-21T05:30:48;100010.57;;;-2.58;65.98
44351;BME280;62766;62.622;17.912;2023-02-21T05:33:18;100019.64;;;-2.57;65.92
44351;BME280;62766;62.622;17.912;2023-02-21T05:35:47;100024.56;;;-2.56;65.62
44351;BME280;62766;62.622;17.912;2023-02-21T05:38:16;100039.19;;;-2.49;65.66
44351;BME280;62766;62.622;17.912;2023-02-21T05:40:46;100041.44;;;-2.62;65.63
44351;BME280;62766;62.622;17.912;2023-02-21T05:43:15;100049.52;;;-2.66;65.53
44351;BME280;62766;62.622;17.912;2023-02-21T05:45:43;100050.57;;;-2.73;65.43
44351;BME280;62766;62.622;17.912;2023-02-21T05:48:12;100056.64;;;-2.82;65.71
44351;BME280;62766;62.622;17.912;2023-02-21T05:50:41;100064.40;;;-2.78;65.72
44351;BME280;62766;62.622;17.912;2023-02-21T05:53:10;100071.55;;;-2.91;65.91
44351;BME280;62766;62.622;17.912;2023-02-21T05:55:39;100073.71;;;-2.86;65.75
44351;BME280;62766;62.622;17.912;2023-02-21T05:58:08;100079.02;;;-2.98;65.96
44351;BME280;62766;62.622;17.912;2023-02-21T06:00:36;100084.48;;;-2.87;65.91
44351;BME280;62766;62.622;17.912;2023-02-21T06:03:05;100087.86;;;-2.91;65.67
44351;BME280;62766;62.622;17.912;2023-02-21T06:05:33;100102.10;;;-2.90;65.72
44351;BME280;62766;62.622;17.912;2023-02-21T06:08:03;100111.88;;;-2.97;65.71
44351;BME280;62766;62.622;17.912;2023-02-21T06:10:31;100116.77;;;-2.97;65.49
44351;BME280;62766;62.622;17.912;2023-02-21T06:13:00;100123.47;;;-2.94;65.26
44351;BME280;62766;62.622;17.912;2023-02-21T06:15:28;100126.43;;;-2.99;65.44
44351;BME280;62766;62.622;17.912;2023-02-21T06:17:58;100133.89;;;-3.17;65.52
44351;BME280;62766;62.622;17.912;2023-02-21T06:20:27;100136.83;;;-3.13;65.33
44351;BME280;62766;62.622;17.912;2023-02-21T06:22:55;100142.96;;;-3.15;65.37
44351;BME280;62766;62.622;17.912;2023-02-21T06:25:24;100151.94;;;-2.98;65.21
44351;BME280;62766;62.622;17.912;2023-02-21T06:27:52;100159.49;;;-3.12;65.42
44351;BME280;62766;62.622;17.912;2023-02-21T06:30:22;100172.13;;;-3.06;65.35
44351;BME280;62766;62.622;17.912;2023-02-21T06:32:50;100176.28;;;-3.12;65.05
44351;BME280;62766;62.622;17.912;2023-02-21T06:35:18;100186.57;;;-2.97;64.99
44351;BME280;62766;62.622;17.912;2023-02-21T06:37:47;100195.82;;;-2.95;64.62
44351;BME280;62766;62.622;17.912;2023-02-21T06:40:16;100204.88;;;-3.01;63.99
44351;BME280;62766;62.622;17.912;2023-02-21T06:42:44;100207.11;;;-3.00;63.95
44351;BME280;62766;62.622;17.912;2023-02-21T06:45:13;100209.33;;;-2.89;63.69
44351;BME280;62766;62.622;17.912;2023-02-21T06:47:41;100213.83;;;-2.94;63.25
44351;BME280;62766;62.622;17.912;2023-02-21T06:50:11;100223.18;;;-2.91;63.07
44351;BME280;62766;62.622;17.912;2023-02-21T06:52:39;100225.54;;;-2.80;62.51
44351;BME280;62766;62.622;17.912;2023-02-21T06:55:08;100238.23;;;-2.75;62.42
44351;BME280;62766;62.622;17.912;2023-02-21T06:57:37;100244.36;;;-2.74;62.31
44351;BME280;62766;62.622;17.912;2023-02-21T07:00:07;100252.61;;;-2.83;62.18
44351;BME280;62766;62.622;17.912;2023-02-21T07:02:35;100260.45;;;-2.84;62.36
44351;BME280;62766;62.622;17.912;2023-02-21T07:05:05;100267.17;;;-2.75;62.30
44351;BME280;62766;62.622;17.912;2023-02-21T07:07:34;100272.65;;;-2.76;61.87
44351;BME280;62766;62.622;17.912;2023-02-21T07:10:03;100280.68;;;-2.82;61.68
44351;BME280;62766;62.622;17.912;2023-02-21T07:12:33;100285.01;;;-2.73;61.55
44351;BME280;62766;62.622;17.912;2023-02-21T07:15:02;100292.43;;;-2.72;61.15
44351;BME280;62766;62.622;17.912;2023-02-21T07:17:30;100299.42;;;-2.53;60.72
44351;BME280;62766;62.622;17.912;2023-02-21T07:19:59;100303.36;;;-2.57;59.92
44351;BME280;62766;62.622;17.912;2023-02-21T07:22:27;100305.20;;;-2.68;59.84
44351;BME280;62766;62.622;17.912;2023-02-21T07:24:56;100314.01;;;-2.72;59.56
44351;BME280;62766;62.622;17.912;2023-02-21T07:27:24;100325.31;;;-2.61;58.97
44351;BME280;62766;62.622;17.912;2023-02-21T07:29:54;100325.80;;;-2.52;59.01
44351;BME280;62766;62.622;17.912;2023-02-21T07:32:23;100334.12;;;-2.54;58.47
44351;BME280;62766;62.622;17.912;2023-02-21T07:34:52;100338.64;;;-2.59;58.44
44351;BME280;62766;62.622;17.912;2023-02-21T07:37:20;100341.06;;;-2.59;58.58
44351;BME280;62766;62.622;17.912;2023-02-21T07:39:50;100345.77;;;-2.54;58.40
44351;BME280;62766;62.622;17.912;2023-02-21T07:42:18;100350.91;;;-2.55;58.29
44351;BME280;62766;62.622;17.912;2023-02-21T07:44:47;100356.44;;;-2.39;58.15
44351;BME280;62766;62.622;17.912;2023-02-21T07:47:15;100359.56;;;-2.48;58.08
44351;BME280;62766;62.622;17.912;2023-02-21T07:49:44;100364.56;;;-2.47;57.81
44351;BME280;62766;62.622;17.912;2023-02-21T07:52:12;100369.60;;;-2.65;57.73
44351;BME280;62766;62.622;17.912;2023-02-21T07:54:41;100374.54;;;-2.57;57.40
44351;BME280;62766;62.622;17.912;2023-02-21T07:57:10;100380.87;;;-2.68;57.29
44351;BME280;62766;62.622;17.912;2023-02-21T07:59:39;100384.36;;;-2.64;57.42
44351;BME280;62766;62.622;17.912;2023-02-21T08:02:09;100390.87;;;-2.57;57.35
44351;BME280;62766;62.622;17.912;2023-02-21T08:04:38;100394.09;;;-2.61;57.71
44351;BME280;62766;62.622;17.912;2023-02-21T08:07:08;100396.56;;;-2.54;57.55
44351;BME280;62766;62.622;17.912;2023-02-21T08:09:37;100401.06;;;-2.42;57.32
44351;BME280;62766;62.622;17.912;2023-02-21T08:12:08;100399.92;;;-2.41;56.86
44351;BME280;62766;62.622;17.912;2023-02-21T08:14:37;100405.93;;;-2.34;56.30
44351;BME280;62766;62.622;17.912;2023-02-21T08:17:06;100413.07;;;-2.19;56.18
44351;BME280;62766;62.622;17.912;2023-02-21T08:19:35;100412.05;;;-2.43;56.18
44351;BME280;62766;62.622;17.912;2023-02-21T08:22:03;100409.80;;;-2.30;56.25
44351;BME280;62766;62.622;17.912;2023-02-21T08:24:32;100411.26;;;-2.12;56.05
44351;BME280;62766;62.622;17.912;2023-02-21T08:27:02;100412.32;;;-2.00;55.88
44351;BME280;62766;62.622;17.912;2023-02-21T08:29:30;100417.26;;;-2.00;55.43
44351;BME280;62766;62.622;17.912;2023-02-21T08:31:59;100423.27;;;-1.91;55.07
44351;BME280;62766;62.622;17.912;2023-02-21T08:34:28;100427.52;;;-1.78;55.17
44351;BME280;62766;62.622;17.912;2023-02-21T08:36:56;100423.04;;;-1.78;54.75
44351;BME280;62766;62.622;17.912;2023-02-21T08:39:26;100422.83;;;-1.73;54.84
44351;BME280;62766;62.622;17.912;2023-02-21T08:41:54;100428.35;;;-1.66;54.78
44351;BME280;62766;62.622;17.912;2023-02-21T08:44:23;100439.85;;;-1.65;54.34
44351;BME280;62766;62.622;17.912;2023-02-21T08:46:52;100449.94;;;-1.72;54.45
44351;BME280;62766;62.622;17.912;2023-02-21T08:49:21;100458.05;;;-1.61;54.50
44351;BME280;62766;62.622;17.912;2023-02-21T08:51:50;100463.76;;;-1.55;54.42
44351;BME280;62766;62.622;17.912;2023-02-21T08:54:19;100469.11;;;-1.56;54.43
44351;BME280;62766;62.622;17.912;2023-02-21T08:56:49;100471.52;;;-1.47;54.20
44351;BME280;62766;62.622;17.912;2023-02-21T08:59:18;100473.03;;;-1.32;54.26
44351;BME280;62766;62.622;17.912;2023-02-21T09:01:46;100475.69;;;-1.18;54.08
44351;BME280;62766;62.622;17.912;2023-02-21T09:04:15;100479.83;;;-0.98;53.46
44351;BME280;62766;62.622;17.912;2023-02-21T09:06:44;100485.35;;;-0.85;53.30
44351;BME280;62766;62.622;17.912;2023-02-21T09:09:13;100489.07;;;-0.94;53.09
44351;BME280;62766;62.622;17.912;2023-02-21T09:11:41;100499.47;;;-0.72;53.22
44351;BME280;62766;62.622;17.912;2023-02-21T09:14:10;100510.20;;;-0.44;52.75
44351;BME280;62766;62.622;17.912;2023-02-21T09:16:39;100516.91;;;-0.16;51.96
44351;BME280;62766;62.622;17.912;2023-02-21T09:19:08;100523.74;;;-0.12;52.33
44351;BME280;62766;62.622;17.912;2023-02-21T09:21:38;100534.50;;;0.01;51.96
44351;BME280;62766;62.622;17.912;2023-02-21T09:24:06;100541.27;;;0.16;51.66
44351;BME280;62766;62.622;17.912;2023-02-21T09:26:35;100547.38;;;0.08;51.67
44351;BME280;62766;62.622;17.912;2023-02-21T09:29:03;100549.68;;;0.04;51.92
44351;BME280;62766;62.622;17.912;2023-02-21T09:31:32;100555.47;;;0.01;51.76
44351;BME280;62766;62.622;17.912;2023-02-21T09:34:00;100558.65;;;0.00;52.32
44351;BME280;62766;62.622;17.912;2023-02-21T09:36:29;100560.95;;;-0.00;52.43
44351;BME280;62766;62.622;17.912;2023-02-21T09:38:57;100562.45;;;0.02;52.66
44351;BME280;62766;62.622;17.912;2023-02-21T09:41:26;100565.10;;;0.06;52.63
44351;BME280;62766;62.622;17.912;2023-02-21T09:43:54;100566.11;;;0.12;52.64
44351;BME280;62766;62.622;17.912;2023-02-21T09:46:30;100568.28;;;-0.04;52.74
44351;BME280;62766;62.622;17.912;2023-02-21T09:49:02;100569.25;;;0.06;53.10
44351;BME280;62766;62.622;17.912;2023-02-21T09:51:33;100567.97;;;0.19;53.13
44351;BME280;62766;62.622;17.912;2023-02-21T09:54:03;100566.93;;;0.24;52.71
44351;BME280;62766;62.622;17.912;2023-02-21T09:56:35;100565.28;;;0.52;52.51
44351;BME280;62766;62.622;17.912;2023-02-21T09:59:09;100567.58;;;0.50;52.64
44351;BME280;62766;62.622;17.912;2023-02-21T10:01:54;100569.18;;;0.50;52.05
44351;BME280;62766;62.622;17.912;2023-02-21T10:04:33;100577.33;;;0.09;51.44
44351;BME280;62766;62.622;17.912;2023-02-21T10:07:11;100585.93;;;-0.19;51.74
44351;BME280;62766;62.622;17.912;2023-02-21T10:09:48;100595.13;;;-0.41;52.16
44351;BME280;62766;62.622;17.912;2023-02-21T10:12:26;100607.18;;;-0.36;52.64
44351;BME280;62766;62.622;17.912;2023-02-21T10:15:11;100609.58;;;-0.25;52.43
44351;BME280;62766;62.622;17.912;2023-02-21T10:17:46;100612.35;;;-0.07;52.29
44351;BME280;62766;62.622;17.912;2023-02-21T10:20:24;100616.06;;;0.19;51.98
44351;BME280;62766;62.622;17.912;2023-02-21T10:22:55;100616.21;;;0.31;51.13
44351;BME280;62766;62.622;17.912;2023-02-21T10:25:27;100622.17;;;0.47;50.99
44351;BME280;62766;62.622;17.912;2023-02-21T10:27:58;100620.16;;;0.64;50.53
44351;BME280;62766;62.622;17.912;2023-02-21T10:30:31;100618.82;;;0.72;50.37
44351;BME280;62766;62.622;17.912;2023-02-21T10:33:00;100620.18;;;0.68;48.87
44351;BME280;62766;62.622;17.912;2023-02-21T10:35:28;100624.93;;;0.72;48.59
44351;BME280;62766;62.622;17.912;2023-02-21T10:37:58;100626.73;;;0.40;48.57
44351;BME280;62766;62.622;17.912;2023-02-21T10:40:33;100629.11;;;0.38;48.87
44351;BME280;62766;62.622;17.912;2023-02-21T10:43:08;100633.30;;;0.40;48.79
44351;BME280;62766;62.622;17.912;2023-02-21T10:45:40;100638.30;;;0.39;48.45
44351;BME280;62766;62.622;17.912;2023-02-21T10:48:12;100641.72;;;0.15;47.87
44351;BME280;62766;62.622;17.912;2023-02-21T10:50:44;100643.26;;;0.00;48.55
44351;BME280;62766;62.622;17.912;2023-02-21T10:53:34;100652.02;;;0.11;48.62
44351;BME280;62766;62.622;17.912;2023-02-21T10:56:08;100651.69;;;0.10;48.50
44351;BME280;62766;62.622;17.912;2023-02-21T10:58:37;100656.82;;;-0.02;48.28
44351;BME280;62766;62.622;17.912;2023-02-21T11:03:29;100670.90;;;-0.11;48.24
44351;BME280;62766;62.622;17.912;2023-02-21T11:05:58;100673.21;;;-0.21;48.22
44351;BME280;62766;62.622;17.912;2023-02-21T11:08:34;100680.30;;;-0.07;48.02
44351;BME280;62766;62.622;17.912;2023-02-21T11:11:04;100684.04;;;0.03;47.94
44351;BME280;62766;62.622;17.912;2023-02-21T11:13:33;100692.37;;;0.06;47.87
44351;BME280;62766;62.622;17.912;2023-02-21T11:16:11;100690.78;;;-0.04;48.01
44351;BME280;62766;62.622;17.912;2023-02-21T11:18:44;100702.14;;;0.13;47.84
44351;BME280;62766;62.622;17.912;2023-02-21T11:21:14;100711.19;;;0.06;47.69
44351;BME280;62766;62.622;17.912;2023-02-21T11:23:47;100712.58;;;0.11;47.78
44351;BME280;62766;62.622;17.912;2023-02-21T11:26:20;100718.40;;;0.03;48.07
44351;BME280;62766;62.622;17.912;2023-02-21T11:28:48;100719.68;;;0.27;48.10
44351;BME280;62766;62.622;17.912;2023-02-21T11:31:22;100726.92;;;0.14;48.12
44351;BME280;62766;62.622;17.912;2023-02-21T11:33:57;100725.21;;;0.24;48.02
44351;BME280;62766;62.622;17.912;2023-02-21T11:36:28;100728.60;;;0.41;48.04
44351;BME280;62766;62.622;17.912;2023-02-21T11:39:02;100731.20;;;0.46;47.82
44351;BME280;62766;62.622;17.912;2023-02-21T11:41:36;100734.14;;;0.34;47.18
44351;BME280;62766;62.622;17.912;2023-02-21T11:44:24;100735.13;;;0.46;47.36
44351;BME280;62766;62.622;17.912;2023-02-21T11:47:00;100736.02;;;0.51;47.52
44351;BME280;62766;62.622;17.912;2023-02-21T11:49:38;100737.26;;;0.50;47.31
44351;BME280;62766;62.622;17.912;2023-02-21T11:52:12;100736.09;;;0.61;47.33
44351;BME280;62766;62.622;17.912;2023-02-21T11:54:42;100738.32;;;0.82;46.74
44351;BME280;62766;62.622;17.912;2023-02-21T11:57:19;100738.13;;;0.65;47.01
44351;BME280;62766;62.622;17.912;2023-02-21T11:59:54;100740.49;;;0.80;46.96
44351;BME280;62766;62.622;17.912;2023-02-21T12:02:40;100749.51;;;0.99;46.48
44351;BME280;62766;62.622;17.912;2023-02-21T12:05:30;100752.62;;;0.95;46.24
44351;BME280;62766;62.622;17.912;2023-02-21T12:08:20;100754.73;;;0.79;46.21
44351;BME280;62766;62.622;17.912;2023-02-21T12:10:59;100759.54;;;0.70;46.48
44351;BME280;62766;62.622;17.912;2023-02-21T12:13:35;100767.83;;;0.86;46.33
44351;BME280;62766;62.622;17.912;2023-02-21T12:16:10;100771.11;;;0.76;46.04
44351;BME280;62766;62.622;17.912;2023-02-21T12:18:56;100773.18;;;0.70;46.07
44351;BME280;62766;62.622;17.912;2023-02-21T12:21:55;100774.67;;;0.52;46.41
44351;BME280;62766;62.622;17.912;2023-02-21T12:24:48;100777.88;;;0.64;46.87
44351;BME280;62766;62.622;17.912;2023-02-21T12:27:24;100781.85;;;0.69;46.64
44351;BME280;62766;62.622;17.912;2023-02-21T12:30:08;100787.28;;;0.73;46.67
44351;BME280;62766;62.622;17.912;2023-02-21T12:32:48;100788.92;;;0.89;46.73
44351;BME280;62766;62.622;17.912;2023-02-21T12:35:40;100791.90;;;0.97;46.29
44351;BME280;62766;62.622;17.912;2023-02-21T12:38:16;100801.49;;;0.89;45.74
44351;BME280;62766;62.622;17.912;2023-02-21T12:40:57;100805.24;;;0.88;45.72
44351;BME280;62766;62.622;17.912;2023-02-21T12:43:41;100810.38;;;0.73;45.50
44351;BME280;62766;62.622;17.912;2023-02-21T12:46:18;100815.43;;;0.54;45.80
44351;BME280;62766;62.622;17.912;2023-02-21T12:48:50;100819.45;;;0.45;45.91
44351;BME280;62766;62.622;17.912;2023-02-21T12:51:25;100826.12;;;0.21;46.01
44351;BME280;62766;62.622;17.912;2023-02-21T12:54:02;100833.60;;;0.30;46.18
44351;BME280;62766;62.622;17.912;2023-02-21T12:56:37;100842.70;;;0.28;46.52
44351;BME280;62766;62.622;17.912;2023-02-21T12:59:14;100847.15;;;0.30;46.37
44351;BME280;62766;62.622;17.912;2023-02-21T13:01:47;100848.10;;;0.36;46.63
44351;BME280;62766;62.622;17.912;2023-02-21T13:04:27;100848.95;;;0.32;46.68
44351;BME280;62766;62.622;17.912;2023-02-21T13:07:03;100854.67;;;0.16;46.69
44351;BME280;62766;62.622;17.912;2023-02-21T13:09:34;100859.14;;;-0.03;47.06
44351;BME280;62766;62.622;17.912;2023-02-21T13:12:07;100866.23;;;-0.14;47.40